Flight Track Log - Related Links

Times and Time Zones

All times are in EDT time to prevent confusion due to time zone crossing. See the UPS2062 flight status page for this flight to view local times or setup timezone preferences in your user account.

Time Position Orientation Groundspeed Altitude Reporting Facility
EDT Latitude Longitude Course Direction KTS MPH feet Rate Location/Type
Mon 04:25:51 PM 38.1770 -85.7450 171° South 157 181 700  Level FlightAware ADS-B
Mon 04:26:08 PM 38.1870 -85.7480 347° North 151 174 1,500 2,667 Climbing FlightAware ADS-B
Mon 04:26:27 PM 38.2020 -85.7530 345° North 171 197 2,300 2,000 Climbing FlightAware ADS-B
Mon 04:26:35 PM 38.2090 -85.7560 341° North 184 212 2,400 1,200 Climbing FlightAware ADS-B
Mon 04:26:57 PM 38.2260 -85.7710 325° Northwest 218 251 2,900 2,049 Climbing FlightAware ADS-B
Mon 04:27:16 PM 38.2420 -85.7830 330° Northwest 226 260 3,800 3,000 Climbing FlightAware ADS-B
Mon 04:27:31 PM 38.2570 -85.7940 330° Northwest 235 270 4,600 2,757 Climbing FlightAware ADS-B
Mon 04:27:53 PM 38.2790 -85.8080 333° Northwest 251 289 5,500 2,857 Climbing FlightAware ADS-B
Mon 04:28:13 PM 38.3010 -85.8180 340° North 256 295 6,600 3,300 Climbing FlightAware ADS-B
Mon 04:28:33 PM 38.3230 -85.8260 344° North 258 297 7,700 3,300 Climbing FlightAware ADS-B
Mon 04:28:53 PM 38.3470 -85.8360 342° North 263 303 8,800 3,000 Climbing FlightAware ADS-B
Mon 04:29:15 PM 38.3720 -85.8460 343° North 265 305 9,800 2,143 Climbing FlightAware ADS-B
Mon 04:29:49 PM 38.4140 -85.8640 341° North 297 342 10,800 1,765 Climbing FlightAware ADS-B
Mon 04:30:23 PM 38.4620 -85.8840 342° North 336 387 11,800 2,583 Climbing FlightAware ADS-B
Mon 04:31:01 PM 38.5210 -85.9060 344° North 359 413 13,900 3,618 Climbing FlightAware ADS-B
Mon 04:31:31 PM 38.5700 -85.8970 North 376 433 15,900 3,571 Climbing FlightAware ADS-B
Mon 04:31:43 PM 38.5880 -85.8820 33° Northeast 394 453 16,400 3,136 Climbing FlightAware ADS-B
Mon 04:32:15 PM 38.6280 -85.8280 47° Northeast 403 464 18,200 3,176 Climbing FlightAware ADS-B
Mon 04:32:51 PM 38.6770 -85.7650 45° Northeast 414 476 20,000 2,917 Climbing FlightAware ADS-B
Mon 04:33:27 PM 38.7260 -85.7040 44° Northeast 424 488 21,700 2,667 Climbing FlightAware ADS-B
Mon 04:34:03 PM 38.7780 -85.6380 45° Northeast 437 503 23,200 2,571 Climbing FlightAware ADS-B
Mon 04:34:37 PM 38.8270 -85.5760 45° Northeast 443 510 24,700 2,559 Climbing FlightAware ADS-B
Mon 04:35:11 PM 38.8760 -85.5140 45° Northeast 450 518 26,100 2,314 Climbing FlightAware ADS-B
Mon 04:35:47 PM 38.9290 -85.4450 45° Northeast 462 532 27,400 2,057 Climbing FlightAware ADS-B
Mon 04:36:21 PM 38.9810 -85.3790 45° Northeast 471 542 28,500 2,057 Climbing FlightAware ADS-B
Mon 04:36:57 PM 39.0380 -85.3050 45° Northeast 480 552 29,800 2,195 Climbing FlightAware ADS-B
Mon 04:37:43 PM 39.1090 -85.2140 45° Northeast 479 551 31,500 1,571 Climbing FlightAware ADS-B
Mon 04:38:21 PM 39.1710 -85.1340 45° Northeast 494 568 32,000 405 Climbing FlightAware ADS-B
Mon 04:38:57 PM 39.2290 -85.0590 45° Northeast 499 574 32,000 750 Level FlightAware ADS-B
Mon 04:39:33 PM 39.2870 -84.9840 45° Northeast 487 560 32,900 1,941 Climbing FlightAware ADS-B
Mon 04:40:05 PM 39.3380 -84.9170 45° Northeast 480 552 34,200 1,765 Climbing FlightAware ADS-B
Mon 04:40:41 PM 39.3940 -84.8450 45° Northeast 488 562 34,900 1,315 Climbing FlightAware ADS-B
Mon 04:41:18 PM 39.4540 -84.7660 45° Northeast 483 556 35,800 917 Climbing FlightAware ADS-B
Mon 04:41:53 PM 39.5060 -84.6970 46° Northeast 478 550 36,000 176 Climbing FlightAware ADS-B
Mon 04:42:26 PM 39.5560 -84.6310 45° Northeast 478 550 36,000  Level FlightAware ADS-B
Mon 04:43:01 PM 39.6100 -84.5610 45° Northeast 478 550 36,000  Level FlightAware ADS-B
Mon 04:43:35 PM 39.6650 -84.4880 46° Northeast 481 554 36,000  Level FlightAware ADS-B
Mon 04:44:07 PM 39.7120 -84.4160 50° Northeast 488 562 36,000  Level FlightAware ADS-B
Mon 04:44:46 PM 39.7610 -84.3240 55° Northeast 495 570 36,000  Level FlightAware ADS-B
Mon 04:45:21 PM 39.8070 -84.2350 56° Northeast 496 571 36,000  Level FlightAware ADS-B
Mon 04:45:53 PM 39.8470 -84.1560 57° Northeast 496 571 36,000  Level FlightAware ADS-B
Mon 04:46:33 PM 39.8970 -84.0570 57° Northeast 498 573 36,000  Level FlightAware ADS-B
Mon 04:47:05 PM 39.9380 -83.9760 57° Northeast 500 575 36,000  Level FlightAware ADS-B
Mon 04:47:39 PM 39.9810 -83.8890 57° Northeast 500 575 36,000  Level FlightAware ADS-B
Mon 04:48:19 PM 40.0300 -83.7900 57° Northeast 501 577 36,000 250 Level FlightAware ADS-B
Mon 04:48:51 PM 40.0720 -83.7070 57° Northeast 499 574 36,300 882 Climbing FlightAware ADS-B
Mon 04:49:27 PM 40.1160 -83.6170 57° Northeast 492 566 37,000 600 Climbing FlightAware ADS-B
Mon 04:50:01 PM 40.1580 -83.5330 57° Northeast 484 557 37,000  Level FlightAware ADS-B
Mon 04:50:37 PM 40.2020 -83.4440 57° Northeast 482 555 37,000  Level FlightAware ADS-B
Mon 04:51:09 PM 40.2400 -83.3670 57° Northeast 483 556 37,000  Level FlightAware ADS-B
Mon 04:51:49 PM 40.2890 -83.2680 57° Northeast 487 560 37,000  Level FlightAware ADS-B
Mon 04:52:21 PM 40.3270 -83.1890 58° Northeast 489 563 37,000  Level FlightAware ADS-B
Mon 04:52:57 PM 40.3720 -83.0980 57° Northeast 492 566 37,000  Level FlightAware ADS-B
Mon 04:53:31 PM 40.4130 -83.0130 58° Northeast 494 568 37,000  Level FlightAware ADS-B
Mon 04:54:07 PM 40.4570 -82.9230 57° Northeast 496 571 37,000  Level FlightAware ADS-B
Mon 04:54:44 PM 40.4980 -82.8360 58° Northeast 496 571 37,000  Level FlightAware ADS-B
Mon 04:55:15 PM 40.5410 -82.7480 57° Northeast 497 572 37,000  Level FlightAware ADS-B
Mon 04:55:53 PM 40.5860 -82.6560 57° Northeast 500 575 37,000  Level FlightAware ADS-B
Mon 04:56:29 PM 40.6290 -82.5550 61° Northeast 504 580 37,000  Level FlightAware ADS-B
Mon 04:57:01 PM 40.6620 -82.4690 63° Northeast 506 582 37,000  Level FlightAware ADS-B
Mon 04:57:37 PM 40.6980 -82.3700 64° Northeast 508 585 37,000  Level FlightAware ADS-B
Mon 04:58:09 PM 40.7300 -82.2790 65° Northeast 508 585 37,000  Level FlightAware ADS-B
Mon 04:58:55 PM 40.7770 -82.1500 64° Northeast 509 586 37,000  Level FlightAware ADS-B
Mon 04:59:27 PM 40.8080 -82.0610 65° Northeast 510 587 37,000  Level FlightAware ADS-B
Mon 05:00:03 PM 40.8450 -81.9570 65° Northeast 510 587 37,000  Level FlightAware ADS-B
Mon 05:00:41 PM 40.8820 -81.8520 65° Northeast 512 589 37,000  Level FlightAware ADS-B
Mon 05:01:11 PM 40.9120 -81.7650 65° Northeast 512 589 37,000  Level FlightAware ADS-B
Mon 05:01:49 PM 40.9490 -81.6590 65° Northeast 513 590 37,000  Level FlightAware ADS-B
Mon 05:02:25 PM 40.9860 -81.5540 65° Northeast 514 592 37,000  Level FlightAware ADS-B
Mon 05:02:59 PM 41.0200 -81.4560 65° Northeast 514 592 37,000  Level FlightAware ADS-B
Mon 05:03:34 PM 41.0540 -81.3590 65° Northeast 515 593 37,000  Level FlightAware ADS-B
Mon 05:04:08 PM 41.0880 -81.2610 65° Northeast 516 594 37,000  Level FlightAware ADS-B
Mon 05:04:44 PM 41.1230 -81.1580 66° East 517 595 37,000  Level FlightAware ADS-B
Mon 05:05:16 PM 41.1550 -81.0650 65° Northeast 517 595 37,000  Level FlightAware ADS-B
Mon 05:05:54 PM 41.1930 -80.9540 66° East 519 597 37,000  Level FlightAware ADS-B
Mon 05:06:29 PM 41.2280 -80.8520 65° Northeast 519 597 37,000  Level FlightAware ADS-B
Mon 05:07:04 PM 41.2610 -80.7540 66° East 520 598 37,000  Level FlightAware ADS-B
Mon 05:07:38 PM 41.2950 -80.6510 66° East 521 600 37,000  Level FlightAware ADS-B
Mon 05:08:13 PM 41.3300 -80.5480 66° East 523 602 37,000  Level FlightAware ADS-B
Mon 05:08:54 PM 41.3700 -80.4300 66° East 522 601 37,000  Level FlightAware ADS-B
Mon 05:09:25 PM 41.3990 -80.3420 66° East 522 601 37,000  Level FlightAware ADS-B
Mon 05:10:06 PM 41.4370 -80.2280 66° East 523 602 37,000  Level FlightAware ADS-B
Mon 05:10:41 PM 41.4720 -80.1230 66° East 523 602 37,000  Level FlightAware ADS-B
Mon 05:11:11 PM 41.5000 -80.0390 66° East 522 601 37,000  Level FlightAware ADS-B
Mon 05:11:56 PM 41.5450 -79.9010 66° East 520 598 37,000  Level FlightAware ADS-B
Mon 05:12:33 PM 41.5820 -79.7870 67° East 520 598 37,000  Level FlightAware ADS-B
Mon 05:13:05 PM 41.6120 -79.6960 66° East 520 598 37,000  Level FlightAware ADS-B
Mon 05:13:43 PM 41.6450 -79.5940 67° East 520 598 37,000  Level FlightAware ADS-B
Mon 05:14:13 PM 41.6750 -79.5030 66° East 520 598 37,000  Level FlightAware ADS-B
Mon 05:14:53 PM 41.7150 -79.3790 67° East 520 598 37,000  Level FlightAware ADS-B
Mon 05:15:28 PM 41.7440 -79.2870 67° East 522 601 37,000  Level FlightAware ADS-B
Mon 05:16:03 PM 41.7770 -79.1850 67° East 523 602 37,000  Level FlightAware ADS-B
Mon 05:16:38 PM 41.8120 -79.0760 67° East 525 604 37,000  Level FlightAware ADS-B
Mon 05:17:10 PM 41.8460 -78.9670 67° East 526 605 37,000  Level FlightAware ADS-B
Mon 05:17:46 PM 41.8790 -78.8630 67° East 528 608 37,000  Level FlightAware ADS-B
Mon 05:18:22 PM 41.9120 -78.7580 67° East 530 610 37,000  Level FlightAware ADS-B
Mon 05:19:00 PM 41.9510 -78.6330 67° East 533 613 37,000  Level FlightAware ADS-B
Mon 05:19:32 PM 41.9830 -78.5330 67° East 534 615 37,000  Level FlightAware ADS-B
Mon 05:20:08 PM 42.0140 -78.4320 68° East 536 617 37,000  Level FlightAware ADS-B
Mon 05:20:42 PM 42.0450 -78.3310 68° East 537 618 37,000  Level FlightAware ADS-B
Mon 05:21:16 PM 42.0780 -78.2270 67° East 538 619 37,000  Level FlightAware ADS-B
Mon 05:21:53 PM 42.1140 -78.1090 68° East 538 619 37,000  Level FlightAware ADS-B
Mon 05:22:24 PM 42.1430 -78.0140 68° East 538 619 37,000  Level FlightAware ADS-B
Mon 05:23:02 PM 42.1800 -77.8920 68° East 538 619 37,000  Level FlightAware ADS-B
Mon 05:23:38 PM 42.2150 -77.7760 68° East 538 619 37,000  Level FlightAware ADS-B
Mon 05:24:12 PM 42.2470 -77.6710 68° East 540 621 37,000  Level FlightAware ADS-B
Mon 05:24:50 PM 42.2820 -77.5560 68° East 543 625 37,000  Level FlightAware ADS-B
Mon 05:25:20 PM 42.3110 -77.4590 68° East 544 626 37,000  Level FlightAware ADS-B
Mon 05:25:58 PM 42.3470 -77.3380 68° East 545 627 37,000  Level FlightAware ADS-B
Mon 05:26:34 PM 42.3810 -77.2230 68° East 546 628 37,000 -333 Level FlightAware ADS-B
Mon 05:27:10 PM 42.4140 -77.1110 68° East 545 627 36,600 -794 Descending FlightAware ADS-B
Mon 05:27:42 PM 42.4390 -77.0090 72° East 524 603 36,100 -971 Descending FlightAware ADS-B
Mon 05:28:18 PM 42.4540 -76.8940 80° East 508 585 35,500 -917 Descending FlightAware ADS-B
Mon 05:28:54 PM 42.4660 -76.7890 81° East 507 583 35,000 -417 Descending FlightAware ADS-B
Mon 05:29:30 PM 42.4780 -76.6710 82° East 504 580 35,000  Level FlightAware ADS-B
Mon 05:30:02 PM 42.4880 -76.5720 82° East 506 582 35,000  Level FlightAware ADS-B
Mon 05:30:39 PM 42.4980 -76.4550 83° East 491 565 35,000  Level FlightAware ADS-B
Mon 05:31:12 PM 42.4950 -76.3530 92° East 487 560 35,000  Level FlightAware ADS-B
Mon 05:31:49 PM 42.4930 -76.2420 91° East 491 565 35,000  Level FlightAware ADS-B
Mon 05:32:22 PM 42.4910 -76.1420 92° East 492 566 35,000 -174 Level FlightAware ADS-B
Mon 05:32:58 PM 42.4910 -76.0300 90° East 490 564 34,800 -507 Descending FlightAware ADS-B
Mon 05:33:33 PM 42.4910 -75.9240 90° East 484 557 34,400 -676 Descending FlightAware ADS-B
Mon 05:34:09 PM 42.4910 -75.8160 90° East 477 549 34,000 -857 Descending FlightAware ADS-B
Mon 05:34:43 PM 42.4900 -75.7130 91° East 476 548 33,400 -1,114 Descending FlightAware ADS-B
Mon 05:35:19 PM 42.4890 -75.6070 91° East 478 550 32,700 -1,217 Descending FlightAware ADS-B
Mon 05:35:52 PM 42.4890 -75.5100 90° East 479 551 32,000 -1,235 Descending FlightAware ADS-B
Mon 05:36:27 PM 42.4880 -75.4040 91° East 480 552 31,300 -1,250 Descending FlightAware ADS-B
Mon 05:37:04 PM 42.4870 -75.2980 91° East 483 556 30,500 -1,833 Descending FlightAware ADS-B
Mon 05:37:39 PM 42.4850 -75.1870 91° East 482 555 29,100 -2,197 Descending FlightAware ADS-B
Mon 05:38:15 PM 42.4840 -75.0800 91° East 475 547 27,900 -1,800 Descending FlightAware ADS-B
Mon 05:38:49 PM 42.4830 -74.9830 91° East 463 533 27,000 -857 Descending FlightAware ADS-B
Mon 05:39:32 PM 42.4810 -74.8570 91° East 469 540 26,800 -711 Descending FlightAware ADS-B
Mon 05:40:05 PM 42.4790 -74.7630 92° East 468 539 26,100 -1,652 Descending FlightAware ADS-B
Mon 05:40:41 PM 42.4780 -74.6520 91° East 460 529 24,900 -2,057 Descending FlightAware ADS-B
Mon 05:41:15 PM 42.4790 -74.5530 89° East 462 532 23,700 -2,000 Descending FlightAware ADS-B
Mon 05:41:50 PM 42.4810 -74.4570 88° East 457 526 22,600 -1,800 Descending FlightAware ADS-B
Mon 05:42:25 PM 42.4830 -74.3600 88° East 445 512 21,600 -1,652 Descending FlightAware ADS-B
Mon 05:42:59 PM 42.4850 -74.2650 88° East 432 497 20,700 -1,521 Descending FlightAware ADS-B
Mon 05:43:36 PM 42.4860 -74.1650 89° East 420 483 19,800 -1,378 Descending FlightAware ADS-B
Mon 05:44:13 PM 42.4870 -74.0720 89° East 408 470 19,000 -1,565 Descending FlightAware ADS-B
Mon 05:44:45 PM 42.4880 -73.9890 89° East 406 467 18,000 -1,701 Descending FlightAware ADS-B
Mon 05:45:20 PM 42.4890 -73.9030 89° East 397 457 17,100 -1,833 Descending FlightAware ADS-B
Mon 05:45:57 PM 42.4900 -73.8090 89° East 396 456 15,800 -1,701 Descending FlightAware ADS-B
Mon 05:46:27 PM 42.4860 -73.7360 94° East 381 438 15,200 -885 Descending FlightAware ADS-B
Mon 05:46:58 PM 42.4730 -73.6670 104° East 360 414 14,900 -716 Descending FlightAware ADS-B
Mon 05:47:34 PM 42.4480 -73.5940 115° Southeast 351 404 14,400 -845 Descending FlightAware ADS-B
Mon 05:48:09 PM 42.4220 -73.5250 117° Southeast 360 414 13,900 -896 Descending FlightAware ADS-B
Mon 05:48:41 PM 42.3980 -73.4610 117° Southeast 363 418 13,400 -957 Descending FlightAware ADS-B
Mon 05:49:18 PM 42.3700 -73.3860 117° Southeast 357 411 12,800 -892 Descending FlightAware ADS-B
Mon 05:49:55 PM 42.3420 -73.3130 117° Southeast 353 406 12,300 -822 Descending FlightAware ADS-B
Mon 05:50:31 PM 42.3170 -73.2460 117° Southeast 347 399 11,800 -875 Descending FlightAware ADS-B
Mon 05:50:43 PM 42.3120 -73.2170 103° East 357 411 11,600 -1,000 Descending FlightAware ADS-B
Mon 05:50:55 PM 42.3110 -73.1968 94° East 360 414 11,400 -1,091 Descending FlightAware ADS-B (KSNC)
Mon 05:51:27 PM 42.3150 -73.1185 86° East 346 398 10,800 -917 Descending FlightAware ADS-B (KSNC)
Mon 05:52:07 PM 42.3190 -73.0380 86° East 310 357 10,300 -766 Descending FlightAware ADS-B
Mon 05:52:14 PM 42.3182 -73.0344 106° East 291 335 10,200 -2,108 Descending FlightAware ADS-B (KSNC)
Mon 05:52:44 PM 42.2970 -72.9810 118° Southeast 276 318 9,000 -2,353 Descending FlightAware ADS-B
Mon 05:53:05 PM 42.2810 -72.9490 124° Southeast 289 333 8,200 -1,610 Descending FlightAware ADS-B
Mon 05:53:25 PM 42.2660 -72.9200 125° Southeast 275 316 7,900 -774 Descending FlightAware ADS-B
Mon 05:53:36 PM 42.2560 -72.9090 141° Southeast 257 296 7,800 -750 Descending FlightAware ADS-B
Mon 05:53:41 PM 42.2510 -72.9041 144° Southeast 256 295 7,700 -1,091 Descending FlightAware ADS-B (KSNC)
Mon 05:54:20 PM 42.2161 -72.8699 144° Southeast 255 293 7,000 -1,154 Descending FlightAware ADS-B (KSNC)
Mon 05:54:59 PM 42.1780 -72.8310 143° Southeast 253 291 6,200 -831 Descending FlightAware ADS-B
Mon 05:55:25 PM 42.1550 -72.8070 142° Southeast 253 291 6,100  Descending FlightAware ADS-B
Mon 05:55:43 PM 42.1684 -72.8206 323° Northwest 256 295 6,200  Climbing FlightAware ADS-B (KSNC)
Mon 05:56:24 PM 42.0970 -72.7500 144° Southeast 257 296 6,100 -113 Descending FlightAware ADS-B
Mon 05:56:36 PM 42.0872 -72.7404 144° Southeast 257 296 6,100  Level FlightAware ADS-B (KSNC)
Mon 05:56:57 PM 42.0681 -72.7216 144° Southeast 260 299 6,100 -200 Level FlightAware ADS-B (KSNC)
Mon 05:57:06 PM 42.0598 -72.7117 139° Southeast 269 310 6,000 -783 Descending FlightAware ADS-B (KSNC)
Mon 05:57:20 PM 42.0505 -72.6856 116° Southeast 287 330 5,800 -960 Descending FlightAware ADS-B (KSNC)
Mon 05:57:31 PM 42.0499 -72.6685 93° East 293 337 5,600 -1,333 Descending FlightAware ADS-B (KSNC)
Mon 05:57:38 PM 42.0520 -72.6543 78° East 298 343 5,400 -1,000 Descending FlightAware ADS-B (KSNC)
Mon 05:58:01 PM 42.0590 -72.6362 62° Northeast 276 318 5,100 -762 Descending FlightAware ADS-B (KSNC)
Mon 05:58:41 PM 42.1020 -72.5750 47° Northeast 244 281 4,600 -575 Descending FlightAware ADS-B
Mon 05:59:14 PM 42.1240 -72.5430 47° Northeast 244 281 4,400 -493 Descending FlightAware ADS-B
Mon 05:59:54 PM 42.1530 -72.4990 48° Northeast 237 273 4,000 -1,135 Descending FlightAware ADS-B
Mon 06:00:28 PM 42.1336 -72.4681 48° Northeast 172 198 3,000 -1,448 Descending Boston Center
Mon 06:00:52 PM 42.1108 -72.4708 185° South 145 167 2,600 -500 Descending Boston Center
Mon 06:01:28 PM 42.0897 -72.4906 215° Southwest 98 113 2,500 -98 Descending Boston Center
Mon 06:01:53 PM 42.0753 -72.5100 225° Southwest 157 181 2,500  Level Boston Center
Mon 06:02:26 PM 42.0628 -72.5267 225° Southwest 118 136 2,500  Level Boston Center
Mon 06:02:53 PM 42.0461 -72.5464 221° Southwest 152 175 2,500 -222 Level Boston Center
Mon 06:03:47 PM 42.0189 -72.5825 225° Southwest 126 145 2,200 -470 Descending Boston Center
Mon 06:04:48 PM 42.0000 -72.6078 225° Southwest 109 125 1,600 -595 Descending Boston Center
Mon 06:05:48 PM 41.9750 -72.6411 225° Southwest 120 138 1,000 -600 Descending Boston Center
Mon 06:07:00 PM 41.9333 -72.6833 214° Southwest  Level FlightAware Approximate

Login

Don't have an account? Register now (free) for customized features, flight alerts, and more!